createdAt,value
2024-02-07T00:00:15.160Z,960.8
2024-02-07T00:01:21.307Z,960.8
2024-02-07T00:02:27.448Z,960.7
2024-02-07T00:03:33.604Z,960.7
2024-02-07T00:04:39.733Z,960.7
2024-02-07T00:05:45.914Z,960.7
2024-02-07T00:06:52.030Z,960.7
2024-02-07T00:07:58.175Z,960.7
2024-02-07T00:09:04.304Z,960.7
2024-02-07T00:10:10.456Z,960.6
2024-02-07T00:11:16.623Z,960.7
2024-02-07T00:12:21.755Z,960.6
2024-02-07T00:13:27.895Z,960.7
2024-02-07T00:14:34.039Z,960.6
2024-02-07T00:15:40.187Z,960.7
2024-02-07T00:16:46.330Z,960.7
2024-02-07T00:17:52.461Z,960.6
2024-02-07T00:18:58.618Z,960.6
2024-02-07T00:20:04.748Z,960.6
2024-02-07T00:21:11.009Z,960.6
2024-02-07T00:22:17.071Z,960.6
2024-02-07T00:23:23.231Z,960.6
2024-02-07T00:24:29.349Z,960.7
2024-02-07T00:25:35.478Z,960.6
2024-02-07T00:26:40.641Z,960.6
2024-02-07T00:27:46.777Z,960.6
2024-02-07T00:28:52.956Z,960.7
2024-02-07T00:29:59.076Z,960.7
2024-02-07T00:31:05.216Z,960.6
2024-02-07T00:32:11.372Z,960.6
2024-02-07T00:33:17.502Z,960.6
2024-02-07T00:34:23.644Z,960.6
2024-02-07T00:35:29.794Z,960.6
2024-02-07T00:36:35.947Z,960.6
2024-02-07T00:37:42.071Z,960.6
2024-02-07T00:38:48.240Z,960.6
2024-02-07T00:39:54.393Z,960.6
2024-02-07T00:40:59.520Z,960.6
2024-02-07T00:42:05.659Z,960.5
2024-02-07T00:43:11.825Z,960.5
2024-02-07T00:44:17.965Z,960.5
2024-02-07T00:45:24.088Z,960.5
2024-02-07T00:46:30.238Z,960.6
2024-02-07T00:47:36.381Z,960.6
2024-02-07T00:48:42.527Z,960.6
2024-02-07T00:49:48.663Z,960.6
2024-02-07T00:50:54.818Z,960.6
2024-02-07T00:52:00.962Z,960.6
2024-02-07T00:53:07.100Z,960.6
2024-02-07T00:54:13.241Z,960.6
2024-02-07T00:55:18.449Z,960.6
2024-02-07T00:56:24.544Z,960.6
2024-02-07T00:57:30.714Z,960.5
2024-02-07T00:58:36.834Z,960.5
2024-02-07T00:59:42.980Z,960.5
2024-02-07T01:00:49.121Z,960.5
2024-02-07T01:01:55.267Z,960.5
2024-02-07T01:03:01.401Z,960.5
2024-02-07T01:04:07.671Z,960.5
2024-02-07T01:05:13.712Z,960.5
2024-02-07T01:06:19.829Z,960.5
2024-02-07T01:07:25.984Z,960.4
2024-02-07T01:08:32.127Z,960.4
2024-02-07T01:09:37.285Z,960.4
2024-02-07T01:10:43.427Z,960.4
2024-02-07T01:11:49.590Z,960.4
2024-02-07T01:12:55.741Z,960.4
2024-02-07T01:14:01.857Z,960.4
2024-02-07T01:15:08.022Z,960.5
2024-02-07T01:16:14.146Z,960.5
2024-02-07T01:17:20.287Z,960.5
2024-02-07T01:18:26.437Z,960.5
2024-02-07T01:19:32.580Z,960.5
2024-02-07T01:20:38.749Z,960.5
2024-02-07T01:21:44.862Z,960.5
2024-02-07T01:22:51.011Z,960.5
2024-02-07T01:23:56.218Z,960.4
2024-02-07T01:25:02.393Z,960.4
2024-02-07T01:26:08.447Z,960.4
2024-02-07T01:27:14.589Z,960.4
2024-02-07T01:28:20.759Z,960.4
2024-02-07T01:29:26.884Z,960.4
2024-02-07T01:30:33.013Z,960.3
2024-02-07T01:31:39.172Z,960.3
2024-02-07T01:32:45.300Z,960.3
2024-02-07T01:33:51.453Z,960.3
2024-02-07T01:34:57.605Z,960.3
2024-02-07T01:36:03.799Z,960.3
2024-02-07T01:37:09.888Z,960.3
2024-02-07T01:38:15.043Z,960.3
2024-02-07T01:39:21.189Z,960.3
2024-02-07T01:40:27.338Z,960.3
2024-02-07T01:41:33.500Z,960.3
2024-02-07T01:42:39.617Z,960.3
2024-02-07T01:43:45.761Z,960.2
2024-02-07T01:44:51.918Z,960.2
2024-02-07T01:45:58.053Z,960.2
2024-02-07T01:47:04.186Z,960.2
2024-02-07T01:48:10.341Z,960.2
2024-02-07T01:49:16.475Z,960.2
2024-02-07T01:50:22.623Z,960.2
2024-02-07T01:51:28.769Z,960.2
2024-02-07T01:52:33.932Z,960.2
2024-02-07T01:53:40.076Z,960.2
2024-02-07T01:54:46.218Z,960.2
2024-02-07T01:55:52.388Z,960.2
2024-02-07T01:56:58.510Z,960.2
2024-02-07T01:58:04.650Z,960.2
2024-02-07T01:59:10.792Z,960.2
2024-02-07T02:00:16.937Z,960.1
2024-02-07T02:01:23.096Z,960.1
2024-02-07T02:02:29.232Z,960.1
2024-02-07T02:03:35.382Z,960.1
2024-02-07T02:04:41.511Z,960.1
2024-02-07T02:05:47.664Z,960.1
2024-02-07T02:06:52.859Z,960.1
2024-02-07T02:07:58.962Z,960.1
2024-02-07T02:09:05.100Z,960.1
2024-02-07T02:10:11.246Z,960.1
2024-02-07T02:11:17.387Z,960.1
2024-02-07T02:12:23.540Z,960.1
2024-02-07T02:13:28.694Z,960.1
2024-02-07T02:14:34.856Z,960.1
2024-02-07T02:15:40.976Z,960
2024-02-07T02:16:47.118Z,960
2024-02-07T02:17:53.283Z,959.9
2024-02-07T02:18:59.433Z,959.9
2024-02-07T02:20:05.560Z,959.9
2024-02-07T02:21:11.703Z,959.9
2024-02-07T02:22:17.846Z,959.9
2024-02-07T02:23:23.984Z,959.8
2024-02-07T02:24:30.133Z,959.8
2024-02-07T02:25:36.276Z,959.8
2024-02-07T02:26:42.421Z,959.8
2024-02-07T02:27:47.584Z,959.8
2024-02-07T02:28:53.721Z,959.8
2024-02-07T02:29:59.857Z,959.8
2024-02-07T02:31:06.009Z,959.8
2024-02-07T02:32:12.146Z,959.7
2024-02-07T02:33:18.298Z,959.7
2024-02-07T02:34:24.461Z,959.7
2024-02-07T02:35:30.580Z,959.7
2024-02-07T02:36:36.716Z,959.7
2024-02-07T02:37:42.864Z,959.7
2024-02-07T02:38:49.018Z,959.7
2024-02-07T02:39:55.159Z,959.7
2024-02-07T02:41:01.294Z,959.7
2024-02-07T02:42:06.558Z,959.7
2024-02-07T02:43:12.595Z,959.7
2024-02-07T02:44:18.744Z,959.6
2024-02-07T02:45:24.887Z,959.6
2024-02-07T02:46:31.031Z,959.6
2024-02-07T02:47:37.178Z,959.6
2024-02-07T02:48:43.344Z,959.6
2024-02-07T02:49:49.458Z,959.5
2024-02-07T02:50:55.614Z,959.5
2024-02-07T02:52:01.766Z,959.5
2024-02-07T02:53:07.896Z,959.5
2024-02-07T02:54:14.018Z,959.5
2024-02-07T02:55:20.183Z,959.5
2024-02-07T02:56:25.341Z,959.5
2024-02-07T02:57:31.475Z,959.5
2024-02-07T02:58:37.623Z,959.5
2024-02-07T02:59:43.768Z,959.5
2024-02-07T03:00:49.905Z,959.5
2024-02-07T03:01:56.057Z,959.4
2024-02-07T03:03:02.199Z,959.4
2024-02-07T03:04:08.352Z,959.4
2024-02-07T03:05:14.484Z,959.4
2024-02-07T03:06:20.656Z,959.4
2024-02-07T03:07:26.805Z,959.3
2024-02-07T03:08:32.914Z,959.3
2024-02-07T03:09:39.054Z,959.3
2024-02-07T03:10:44.221Z,959.3
2024-02-07T03:11:50.358Z,959.3
2024-02-07T03:12:56.503Z,959.2
2024-02-07T03:14:02.666Z,959.3
2024-02-07T03:15:08.792Z,959.3
2024-02-07T03:16:14.971Z,959.2
2024-02-07T03:17:21.071Z,959.2
2024-02-07T03:18:27.222Z,959.2
2024-02-07T03:19:33.365Z,959.1
2024-02-07T03:20:39.500Z,959.1
2024-02-07T03:21:45.661Z,959.1
2024-02-07T03:22:51.809Z,959.1
2024-02-07T03:23:57.966Z,959.1
2024-02-07T03:25:03.109Z,959.1
2024-02-07T03:26:09.250Z,959.1
2024-02-07T03:27:15.396Z,959.1
2024-02-07T03:28:21.529Z,959.1
2024-02-07T03:29:27.691Z,959.1
2024-02-07T03:30:33.827Z,959
2024-02-07T03:31:39.981Z,959
2024-02-07T03:32:46.112Z,959
2024-02-07T03:33:52.245Z,959
2024-02-07T03:34:58.391Z,959
2024-02-07T03:36:04.521Z,959
2024-02-07T03:37:10.692Z,959
2024-02-07T03:38:16.838Z,958.9
2024-02-07T03:39:21.985Z,958.9
2024-02-07T03:40:28.136Z,958.9
2024-02-07T03:41:34.277Z,958.9
2024-02-07T03:42:40.416Z,959
2024-02-07T03:43:46.556Z,959
2024-02-07T03:44:52.700Z,959
2024-02-07T03:45:58.844Z,959
2024-02-07T03:47:04.997Z,959
2024-02-07T03:48:11.136Z,959
2024-02-07T03:49:17.274Z,958.9
2024-02-07T03:50:23.429Z,958.9
2024-02-07T03:51:29.559Z,958.9
2024-02-07T03:52:35.705Z,958.9
2024-02-07T03:53:40.879Z,958.9
2024-02-07T03:54:47.011Z,958.8
2024-02-07T03:55:53.153Z,958.8
2024-02-07T03:56:59.317Z,958.8
2024-02-07T03:58:05.437Z,958.8
2024-02-07T03:59:11.580Z,958.8
2024-02-07T04:00:17.741Z,958.8
2024-02-07T04:01:23.881Z,958.8
2024-02-07T04:02:30.022Z,958.8
2024-02-07T04:03:36.159Z,958.8
2024-02-07T04:04:42.301Z,958.7
2024-02-07T04:05:48.451Z,958.7
2024-02-07T04:06:54.585Z,958.7
2024-02-07T04:07:59.755Z,958.7
2024-02-07T04:09:05.895Z,958.6
2024-02-07T04:10:12.038Z,958.7
2024-02-07T04:11:18.176Z,958.7
2024-02-07T04:12:24.338Z,958.6
2024-02-07T04:13:30.481Z,958.6
2024-02-07T04:14:36.613Z,958.6
2024-02-07T04:15:42.754Z,958.6
2024-02-07T04:16:48.903Z,958.6
2024-02-07T04:17:55.047Z,958.6
2024-02-07T04:19:01.187Z,958.6
2024-02-07T04:20:07.314Z,958.6
2024-02-07T04:21:13.478Z,958.6
2024-02-07T04:22:19.611Z,958.6
2024-02-07T04:23:24.768Z,958.6
2024-02-07T04:24:30.914Z,958.6
2024-02-07T04:25:37.078Z,958.6
2024-02-07T04:26:43.212Z,958.6
2024-02-07T04:27:49.369Z,958.6
2024-02-07T04:28:55.493Z,958.6
2024-02-07T04:30:01.665Z,958.6
2024-02-07T04:31:07.786Z,958.6
2024-02-07T04:32:13.929Z,958.6
2024-02-07T04:33:20.067Z,958.6
2024-02-07T04:34:26.214Z,958.6
2024-02-07T04:35:32.354Z,958.6
2024-02-07T04:36:38.503Z,958.6
2024-02-07T04:37:43.653Z,958.7
2024-02-07T04:38:49.828Z,958.6
2024-02-07T04:39:55.944Z,958.7
2024-02-07T04:41:02.093Z,958.7
2024-02-07T04:42:08.226Z,958.7
2024-02-07T04:43:14.373Z,958.7
2024-02-07T04:44:20.519Z,958.6
2024-02-07T04:45:26.659Z,958.6
2024-02-07T04:46:32.823Z,958.6
2024-02-07T04:47:38.948Z,958.6
2024-02-07T04:48:45.091Z,958.6
2024-02-07T04:49:51.233Z,958.6
2024-02-07T04:50:57.380Z,958.6
2024-02-07T04:52:02.551Z,958.6
2024-02-07T04:53:08.692Z,958.6
2024-02-07T04:54:14.827Z,958.6
2024-02-07T04:55:20.976Z,958.6
2024-02-07T04:56:27.109Z,958.6
2024-02-07T04:57:33.251Z,958.6
2024-02-07T04:58:39.398Z,958.6
2024-02-07T04:59:45.540Z,958.6
2024-02-07T05:00:51.684Z,958.5
2024-02-07T05:01:57.831Z,958.5
2024-02-07T05:03:03.988Z,958.5
2024-02-07T05:04:10.133Z,958.5
2024-02-07T05:05:16.258Z,958.5
2024-02-07T05:06:22.427Z,958.5
2024-02-07T05:07:27.577Z,958.5
2024-02-07T05:08:33.730Z,958.5
2024-02-07T05:09:39.857Z,958.5
2024-02-07T05:10:45.998Z,958.5
2024-02-07T05:11:52.142Z,958.5
2024-02-07T05:12:58.290Z,958.5
2024-02-07T05:14:04.430Z,958.5
2024-02-07T05:15:10.575Z,958.5
2024-02-07T05:16:16.716Z,958.5
2024-02-07T05:17:22.857Z,958.5
2024-02-07T05:18:29.009Z,958.5
2024-02-07T05:19:35.152Z,958.4
2024-02-07T05:20:41.292Z,958.5
2024-02-07T05:21:46.456Z,958.4
2024-02-07T05:22:52.585Z,958.5
2024-02-07T05:23:58.738Z,958.5
2024-02-07T05:25:04.876Z,958.5
2024-02-07T05:26:11.032Z,958.5
2024-02-07T05:27:17.159Z,958.5
2024-02-07T05:28:23.299Z,958.5
2024-02-07T05:29:29.447Z,958.5
2024-02-07T05:30:35.596Z,958.5
2024-02-07T05:31:41.738Z,958.5
2024-02-07T05:32:47.888Z,958.5
2024-02-07T05:33:54.024Z,958.5
2024-02-07T05:35:00.176Z,958.5
2024-02-07T05:36:05.346Z,958.5
2024-02-07T05:37:11.472Z,958.5
2024-02-07T05:38:17.630Z,958.5
2024-02-07T05:39:23.770Z,958.5
2024-02-07T05:40:29.899Z,958.5
2024-02-07T05:41:36.040Z,958.5
2024-02-07T05:42:42.186Z,958.6
2024-02-07T05:43:48.333Z,958.6
2024-02-07T05:44:54.498Z,958.5
2024-02-07T05:46:00.626Z,958.5
2024-02-07T05:47:06.769Z,958.5
2024-02-07T05:48:12.914Z,958.5
2024-02-07T05:49:19.052Z,958.4
2024-02-07T05:50:24.212Z,958.5
2024-02-07T05:51:30.389Z,958.4
2024-02-07T05:52:36.517Z,958.4
2024-02-07T05:53:42.639Z,958.4
2024-02-07T05:54:47.801Z,958.4
2024-02-07T05:55:53.952Z,958.4
2024-02-07T05:57:00.099Z,958.4
2024-02-07T05:58:06.230Z,958.4
2024-02-07T05:59:11.408Z,958.4
2024-02-07T06:00:16.559Z,958.4
2024-02-07T06:01:22.714Z,958.4
2024-02-07T06:02:28.861Z,958.4
2024-02-07T06:03:35.002Z,958.4
2024-02-07T06:04:41.136Z,958.3
2024-02-07T06:05:47.288Z,958.3
2024-02-07T06:06:53.429Z,958.3
2024-02-07T06:07:59.579Z,958.3
2024-02-07T06:09:05.713Z,958.3
2024-02-07T06:10:11.907Z,958.3
2024-02-07T06:11:18.015Z,958.3
2024-02-07T06:12:24.156Z,958.3
2024-02-07T06:13:30.294Z,958.3
2024-02-07T06:14:35.446Z,958.3
2024-02-07T06:15:41.600Z,958.3
2024-02-07T06:16:47.764Z,958.3
2024-02-07T06:17:53.884Z,958.3
2024-02-07T06:19:00.017Z,958.3
2024-02-07T06:20:06.168Z,958.3
2024-02-07T06:21:12.333Z,958.3
2024-02-07T06:22:18.459Z,958.4
2024-02-07T06:23:24.602Z,958.3
2024-02-07T06:24:30.751Z,958.3
2024-02-07T06:25:36.902Z,958.4
2024-02-07T06:26:43.024Z,958.3
2024-02-07T06:27:49.174Z,958.3
2024-02-07T06:28:54.338Z,958.3
2024-02-07T06:30:00.474Z,958.3
2024-02-07T06:31:06.622Z,958.3
2024-02-07T06:32:12.762Z,958.3
2024-02-07T06:33:18.921Z,958.3
2024-02-07T06:34:25.063Z,958.3
2024-02-07T06:35:31.200Z,958.4
2024-02-07T06:36:37.359Z,958.4
2024-02-07T06:37:43.478Z,958.4
2024-02-07T06:38:49.706Z,958.4
2024-02-07T06:39:55.769Z,958.3
2024-02-07T06:41:01.916Z,958.3
2024-02-07T06:42:08.086Z,958.3
2024-02-07T06:43:13.206Z,958.3
2024-02-07T06:44:19.366Z,958.3
2024-02-07T06:45:25.491Z,958.3
2024-02-07T06:46:31.646Z,958.3
2024-02-07T06:47:37.789Z,958.3
2024-02-07T06:48:43.931Z,958.3
2024-02-07T06:49:50.088Z,958.3
2024-02-07T06:50:56.218Z,958.3
2024-02-07T06:52:02.360Z,958.4
2024-02-07T06:53:08.508Z,958.3
2024-02-07T06:54:14.655Z,958.3
2024-02-07T06:55:20.802Z,958.3
2024-02-07T06:56:26.985Z,958.3
2024-02-07T06:57:32.096Z,958.3
2024-02-07T06:58:38.261Z,958.2
2024-02-07T06:59:44.370Z,958.2
2024-02-07T07:00:50.528Z,958.2
2024-02-07T07:01:56.703Z,958.2
2024-02-07T07:03:02.816Z,958.2
2024-02-07T07:04:08.957Z,958.2
2024-02-07T07:05:15.099Z,958.2
2024-02-07T07:06:21.259Z,958.3
2024-02-07T07:07:27.391Z,958.2
2024-02-07T07:08:33.594Z,958.2
2024-02-07T07:09:39.669Z,958.2
2024-02-07T07:10:45.820Z,958.2
2024-02-07T07:11:50.986Z,958.2
2024-02-07T07:12:57.192Z,958.2
2024-02-07T07:14:03.267Z,958.2
2024-02-07T07:16:15.584Z,958.2
2024-02-07T07:17:21.696Z,958.2
2024-02-07T07:18:27.852Z,958.2
2024-02-07T07:19:33.982Z,958.2
2024-02-07T07:20:40.119Z,958.2
2024-02-07T07:21:46.292Z,958.2
2024-02-07T07:22:52.414Z,958.2
2024-02-07T07:23:58.556Z,958.2
2024-02-07T07:25:04.708Z,958.2
2024-02-07T07:26:09.882Z,958.2
2024-02-07T07:27:16.003Z,958.2
2024-02-07T07:28:22.150Z,958.2
2024-02-07T07:29:28.290Z,958.2
2024-02-07T07:30:34.461Z,958.2
2024-02-07T07:31:40.596Z,958.2
2024-02-07T07:32:46.719Z,958.1
2024-02-07T07:33:52.877Z,958.1
2024-02-07T07:34:59.014Z,958.1
2024-02-07T07:36:05.184Z,958.2
2024-02-07T07:37:11.299Z,958.1
2024-02-07T07:38:17.446Z,958.1
2024-02-07T07:39:23.589Z,958.1
2024-02-07T07:40:28.738Z,958.1
2024-02-07T07:41:34.889Z,958.1
2024-02-07T07:42:41.032Z,958.1
2024-02-07T07:43:47.168Z,958.1
2024-02-07T07:44:53.319Z,958.1
2024-02-07T07:45:59.484Z,958.1
2024-02-07T07:47:05.601Z,958.1
2024-02-07T07:48:11.777Z,958.1
2024-02-07T07:49:17.892Z,958.1
2024-02-07T07:50:24.041Z,958.1
2024-02-07T07:51:30.172Z,958.1
2024-02-07T07:52:36.330Z,958
2024-02-07T07:53:42.463Z,958
2024-02-07T07:54:47.628Z,957.9
2024-02-07T07:55:53.769Z,957.9
2024-02-07T07:56:59.912Z,958
2024-02-07T07:58:06.053Z,958.1
2024-02-07T07:59:12.200Z,958.1
2024-02-07T08:00:18.359Z,958.1
2024-02-07T08:01:24.492Z,958
2024-02-07T08:02:30.650Z,958
2024-02-07T08:03:36.759Z,958
2024-02-07T08:04:42.939Z,957.9
2024-02-07T08:05:49.067Z,957.9
2024-02-07T08:06:55.202Z,957.9
2024-02-07T08:08:01.353Z,957.9
2024-02-07T08:09:07.607Z,958
2024-02-07T08:10:13.759Z,958
2024-02-07T08:11:19.899Z,957.9
2024-02-07T08:12:26.067Z,958
2024-02-07T08:13:32.185Z,958
2024-02-07T08:14:38.330Z,957.9
2024-02-07T08:15:44.472Z,958
2024-02-07T08:16:50.609Z,958
2024-02-07T08:17:56.774Z,957.9
2024-02-07T08:19:02.910Z,957.9
2024-02-07T08:20:09.047Z,957.9
2024-02-07T08:21:15.203Z,957.9
2024-02-07T08:22:21.334Z,957.9
2024-02-07T08:23:26.491Z,957.9
2024-02-07T08:24:32.659Z,957.9
2024-02-07T08:25:38.777Z,958
2024-02-07T08:26:44.948Z,958
2024-02-07T08:27:51.067Z,957.9
2024-02-07T08:28:57.218Z,957.8
2024-02-07T08:30:03.424Z,957.9
2024-02-07T08:31:09.493Z,957.9
2024-02-07T08:32:15.642Z,957.8
2024-02-07T08:33:21.777Z,957.8
2024-02-07T08:34:27.924Z,957.8
2024-02-07T08:35:34.066Z,957.8
2024-02-07T08:36:40.219Z,957.8
2024-02-07T08:37:45.382Z,957.7
2024-02-07T08:38:51.520Z,957.8
2024-02-07T08:39:57.661Z,957.8
2024-02-07T08:41:03.797Z,957.8
2024-02-07T08:42:09.950Z,957.8
2024-02-07T08:43:16.090Z,957.8
2024-02-07T08:44:22.250Z,957.8
2024-02-07T08:45:28.497Z,957.8
2024-02-07T08:46:34.528Z,957.8
2024-02-07T08:47:40.668Z,957.8
2024-02-07T08:48:46.809Z,957.8
2024-02-07T08:49:52.965Z,957.8
2024-02-07T08:50:59.094Z,957.8
2024-02-07T08:52:04.276Z,957.8
2024-02-07T08:53:10.398Z,957.8
2024-02-07T08:54:16.696Z,957.8
2024-02-07T08:55:22.827Z,957.8
2024-02-07T08:56:28.965Z,957.9
2024-02-07T08:57:34.120Z,957.8
2024-02-07T08:58:39.301Z,957.8
2024-02-07T08:59:44.508Z,957.8
2024-02-07T09:00:50.595Z,957.8
2024-02-07T09:01:56.741Z,957.8
2024-02-07T09:03:02.874Z,957.8
2024-02-07T09:04:09.028Z,957.8
2024-02-07T09:05:15.157Z,957.8
2024-02-07T09:06:21.310Z,957.9
2024-02-07T09:07:27.461Z,957.8
2024-02-07T09:08:33.660Z,957.9
2024-02-07T09:09:39.757Z,957.8
2024-02-07T09:10:45.937Z,957.8
2024-02-07T09:11:52.032Z,957.8
2024-02-07T09:12:58.184Z,957.8
2024-02-07T09:14:03.328Z,957.8
2024-02-07T09:15:09.466Z,957.8
2024-02-07T09:16:15.622Z,957.8
2024-02-07T09:17:21.760Z,957.7
2024-02-07T09:18:27.906Z,957.7
2024-02-07T09:19:34.042Z,957.7
2024-02-07T09:20:40.212Z,957.7
2024-02-07T09:21:46.399Z,957.7
2024-02-07T09:22:52.475Z,957.7
2024-02-07T09:23:58.623Z,957.7
2024-02-07T09:25:04.764Z,957.7
2024-02-07T09:26:10.908Z,957.7
2024-02-07T09:27:17.080Z,957.7
2024-02-07T09:28:22.232Z,957.7
2024-02-07T09:29:28.340Z,957.7
2024-02-07T09:30:34.499Z,957.7
2024-02-07T09:31:40.639Z,957.6
2024-02-07T09:32:46.834Z,957.6
2024-02-07T09:33:52.923Z,957.5
2024-02-07T09:34:59.202Z,957.5
2024-02-07T09:36:04.257Z,957.5
2024-02-07T09:37:10.387Z,957.5
2024-02-07T09:38:16.540Z,957.5
2024-02-07T09:39:22.671Z,957.4
2024-02-07T09:40:28.801Z,957.5
2024-02-07T09:41:34.957Z,957.5
2024-02-07T09:42:41.103Z,957.5
2024-02-07T09:43:47.276Z,957.5
2024-02-07T09:44:53.413Z,957.5
2024-02-07T09:45:59.543Z,957.5
2024-02-07T09:47:05.672Z,957.5
2024-02-07T09:48:11.818Z,957.5
2024-02-07T09:49:17.956Z,957.4
2024-02-07T09:50:23.116Z,957.4
2024-02-07T09:51:29.300Z,957.4
2024-02-07T09:52:34.454Z,957.4
2024-02-07T09:53:39.596Z,957.4
2024-02-07T09:54:45.745Z,957.3
2024-02-07T09:55:51.867Z,957.3
2024-02-07T09:56:58.012Z,957.3
2024-02-07T09:58:04.160Z,957.3
2024-02-07T09:59:10.307Z,957.2
2024-02-07T10:00:16.482Z,957.2
2024-02-07T10:01:22.594Z,957.2
2024-02-07T10:02:28.732Z,957.1
2024-02-07T10:03:34.931Z,957.1
2024-02-07T10:04:41.031Z,957.1
2024-02-07T10:05:47.177Z,957.1
2024-02-07T10:06:53.305Z,957.1
2024-02-07T10:07:58.464Z,957.1
2024-02-07T10:09:04.612Z,957.1
2024-02-07T10:10:10.766Z,957
2024-02-07T10:11:16.901Z,957.1
2024-02-07T10:12:23.050Z,957.1
2024-02-07T10:13:29.180Z,957
2024-02-07T10:14:35.377Z,957
2024-02-07T10:15:41.491Z,957
2024-02-07T10:16:46.666Z,957
2024-02-07T10:17:51.892Z,957
2024-02-07T10:18:56.969Z,957
2024-02-07T10:20:03.117Z,957
2024-02-07T10:21:09.240Z,956.9
2024-02-07T10:22:15.393Z,956.9
2024-02-07T10:23:21.544Z,956.9
2024-02-07T10:24:27.689Z,956.9
2024-02-07T10:25:33.836Z,956.9
2024-02-07T10:26:39.972Z,956.9
2024-02-07T10:27:46.113Z,956.9
2024-02-07T10:28:52.258Z,956.8
2024-02-07T10:29:58.420Z,956.8
2024-02-07T10:31:04.548Z,956.8
2024-02-07T10:32:10.711Z,956.9
2024-02-07T10:33:15.865Z,956.8
2024-02-07T10:34:21.991Z,956.8
2024-02-07T10:35:28.129Z,956.7
2024-02-07T10:36:34.283Z,956.6
2024-02-07T10:37:40.423Z,956.6
2024-02-07T10:38:46.565Z,956.6
2024-02-07T10:39:52.704Z,956.6
2024-02-07T10:40:58.852Z,956.6
2024-02-07T10:42:04.994Z,956.6
2024-02-07T10:43:11.120Z,956.7
2024-02-07T10:44:17.278Z,956.5
2024-02-07T10:45:23.442Z,956.5
2024-02-07T10:46:29.567Z,956.4
2024-02-07T10:47:34.750Z,956.4
2024-02-07T10:48:40.864Z,956.4
2024-02-07T10:49:47.034Z,956.4
2024-02-07T10:50:53.149Z,956.4
2024-02-07T10:51:59.296Z,956.4
2024-02-07T10:53:05.442Z,956.4
2024-02-07T10:54:11.597Z,956.4
2024-02-07T10:55:17.737Z,956.4
2024-02-07T10:56:23.864Z,956.4
2024-02-07T10:57:30.011Z,956.4
2024-02-07T10:58:36.176Z,956.3
2024-02-07T10:59:42.299Z,956.4
2024-02-07T11:00:48.436Z,956.3
2024-02-07T11:01:53.600Z,956.3
2024-02-07T11:02:59.835Z,956.3
2024-02-07T11:04:05.906Z,956.3
2024-02-07T11:05:12.022Z,956.3
2024-02-07T11:06:18.193Z,956.2
2024-02-07T11:07:24.320Z,956.3
2024-02-07T11:08:30.528Z,956.3
2024-02-07T11:09:36.607Z,956.3
2024-02-07T11:10:42.780Z,956.2
2024-02-07T11:11:48.896Z,956.3
2024-02-07T11:12:55.035Z,956.2
2024-02-07T11:14:01.165Z,956.1
2024-02-07T11:15:07.407Z,956.2
2024-02-07T11:16:12.496Z,956.1
2024-02-07T11:17:18.621Z,956.1
2024-02-07T11:18:24.763Z,956.1
2024-02-07T11:19:30.923Z,956.1
2024-02-07T11:20:37.049Z,956
2024-02-07T11:21:43.187Z,956
2024-02-07T11:22:49.361Z,955.9
2024-02-07T11:23:55.480Z,955.9
2024-02-07T11:25:01.639Z,955.9
2024-02-07T11:26:07.790Z,955.9
2024-02-07T11:27:13.908Z,955.8
2024-02-07T11:28:20.053Z,955.9
2024-02-07T11:29:26.194Z,955.8
2024-02-07T11:30:31.358Z,955.8
2024-02-07T11:31:37.503Z,955.8
2024-02-07T11:32:43.641Z,955.8
2024-02-07T11:33:49.784Z,955.8
2024-02-07T11:34:55.929Z,955.8
2024-02-07T11:36:02.165Z,955.8
2024-02-07T11:37:08.223Z,955.7
2024-02-07T11:38:14.367Z,955.8
2024-02-07T11:39:20.522Z,955.8
2024-02-07T11:40:26.639Z,955.7
2024-02-07T11:41:32.792Z,955.8
2024-02-07T11:42:38.918Z,955.8
2024-02-07T11:43:45.078Z,955.8
2024-02-07T11:44:50.229Z,955.7
2024-02-07T11:45:56.373Z,955.7
2024-02-07T11:47:02.537Z,955.7
2024-02-07T11:48:08.658Z,955.7
2024-02-07T11:49:14.803Z,955.6
2024-02-07T11:50:20.943Z,955.6
2024-02-07T11:51:27.088Z,955.6
2024-02-07T11:52:33.223Z,955.6
2024-02-07T11:53:39.397Z,955.6
2024-02-07T11:54:45.513Z,955.6
2024-02-07T11:55:51.685Z,955.6
2024-02-07T11:56:57.804Z,955.5
2024-02-07T11:58:03.945Z,955.5
2024-02-07T11:59:09.111Z,955.5
2024-02-07T12:00:15.249Z,955.5
2024-02-07T12:01:21.409Z,955.5
2024-02-07T12:02:27.535Z,955.5
2024-02-07T12:03:33.674Z,955.4
2024-02-07T12:04:39.828Z,955.4
2024-02-07T12:05:45.997Z,955.4
2024-02-07T12:06:52.108Z,955.3
2024-02-07T12:07:58.236Z,955.3
2024-02-07T12:09:04.389Z,955.3
2024-02-07T12:10:10.534Z,955.3
2024-02-07T12:11:16.680Z,955.3
2024-02-07T12:12:22.843Z,955.3
2024-02-07T12:13:27.983Z,955.2
2024-02-07T12:14:34.130Z,955.2
2024-02-07T12:15:40.266Z,955.2
2024-02-07T12:16:46.421Z,955.2
2024-02-07T12:17:52.549Z,955.1
2024-02-07T12:18:58.754Z,955.1
2024-02-07T12:20:04.854Z,955.1
2024-02-07T12:21:10.983Z,955.1
2024-02-07T12:22:17.150Z,955
2024-02-07T12:23:23.265Z,955
2024-02-07T12:24:29.415Z,955
2024-02-07T12:25:35.554Z,955
2024-02-07T12:26:41.692Z,955
2024-02-07T12:27:46.863Z,954.9
2024-02-07T12:28:53.045Z,954.8
2024-02-07T12:29:59.141Z,954.9
2024-02-07T12:31:05.306Z,954.9
2024-02-07T12:32:11.431Z,954.9
2024-02-07T12:33:17.585Z,954.9
2024-02-07T12:34:23.733Z,954.9
2024-02-07T12:35:29.859Z,954.9
2024-02-07T12:36:36.004Z,954.9
2024-02-07T12:37:42.168Z,954.9
2024-02-07T12:38:48.301Z,954.9
2024-02-07T12:39:54.439Z,954.9
2024-02-07T12:41:00.574Z,954.9
2024-02-07T12:42:05.746Z,954.8
2024-02-07T12:43:11.895Z,954.8
2024-02-07T12:44:18.028Z,954.8
2024-02-07T12:45:24.180Z,954.8
2024-02-07T12:46:30.318Z,954.8
2024-02-07T12:47:36.455Z,954.7
2024-02-07T12:48:42.626Z,954.7
2024-02-07T12:49:48.745Z,954.7
2024-02-07T12:50:54.898Z,954.6
2024-02-07T12:52:01.030Z,954.6
2024-02-07T12:53:07.170Z,954.5
2024-02-07T12:54:13.320Z,954.5
2024-02-07T12:55:19.461Z,954.5
2024-02-07T12:56:24.618Z,954.5
2024-02-07T12:57:30.767Z,954.5
2024-02-07T12:58:36.913Z,954.5
2024-02-07T12:59:43.047Z,954.5
2024-02-07T13:00:49.195Z,954.5
2024-02-07T13:01:55.352Z,954.5
2024-02-07T13:03:01.479Z,954.5
2024-02-07T13:04:07.640Z,954.4
2024-02-07T13:05:13.774Z,954.4
2024-02-07T13:06:19.921Z,954.4
2024-02-07T13:07:26.057Z,954.4
2024-02-07T13:08:32.248Z,954.4
2024-02-07T13:09:38.352Z,954.4
2024-02-07T13:10:43.490Z,954.4
2024-02-07T13:11:49.674Z,954.4
2024-02-07T13:12:55.789Z,954.5
2024-02-07T13:14:01.927Z,954.4
2024-02-07T13:15:08.064Z,954.4
2024-02-07T13:16:14.298Z,954.4
2024-02-07T13:17:19.397Z,954.4
2024-02-07T13:18:25.543Z,954.3
2024-02-07T13:19:31.668Z,954.3
2024-02-07T13:20:37.815Z,954.3
2024-02-07T13:21:43.956Z,954.3
2024-02-07T13:22:50.098Z,954.2
2024-02-07T13:23:56.237Z,954.2
2024-02-07T13:25:02.387Z,954.2
2024-02-07T13:26:08.519Z,954.2
2024-02-07T13:27:14.663Z,954.2
2024-02-07T13:28:20.824Z,954.2
2024-02-07T13:29:26.946Z,954.2
2024-02-07T13:30:33.098Z,954.2
2024-02-07T13:31:38.253Z,954.2
2024-02-07T13:32:44.422Z,954.1
2024-02-07T13:33:50.540Z,954.1
2024-02-07T13:34:56.697Z,954.1
2024-02-07T13:36:02.823Z,954
2024-02-07T13:37:08.995Z,954
2024-02-07T13:38:15.129Z,954
2024-02-07T13:39:21.261Z,954
2024-02-07T13:40:27.407Z,953.9
2024-02-07T13:41:33.551Z,953.9
2024-02-07T13:42:39.711Z,953.9
2024-02-07T13:43:45.829Z,953.9
2024-02-07T13:44:51.977Z,953.9
2024-02-07T13:45:57.135Z,953.8
2024-02-07T13:47:03.278Z,953.8
2024-02-07T13:48:09.419Z,953.8
2024-02-07T13:49:15.598Z,953.8
2024-02-07T13:50:21.750Z,953.8
2024-02-07T13:51:27.883Z,953.7
2024-02-07T13:52:33.986Z,953.7
2024-02-07T13:53:40.136Z,953.7
2024-02-07T13:54:46.296Z,953.7
2024-02-07T13:55:52.454Z,953.7
2024-02-07T13:56:58.560Z,953.7
2024-02-07T13:58:04.705Z,953.7
2024-02-07T13:59:10.919Z,953.7
2024-02-07T14:00:16.010Z,953.7
2024-02-07T14:01:22.156Z,953.6
2024-02-07T14:02:28.358Z,953.6
2024-02-07T14:03:34.470Z,953.6
2024-02-07T14:04:40.667Z,953.7
2024-02-07T14:05:46.739Z,953.6
2024-02-07T14:06:52.865Z,953.6
2024-02-07T14:07:59.037Z,953.6
2024-02-07T14:09:05.155Z,953.6
2024-02-07T14:10:11.414Z,953.5
2024-02-07T14:11:17.452Z,953.5
2024-02-07T14:12:23.586Z,953.5
2024-02-07T14:13:29.736Z,953.5
2024-02-07T14:14:34.882Z,953.4